Time;durP1;ratioP1;P1;durP2;ratioP2;P2;SDS_P1;SDS_P2;PMS_P1;PMS_P2;Temp;Humidity;BMP_temperature;BMP_pressure;BME280_temperature;BME280_humidity;BME280_pressure;Samples;Min_cycle;Max_cycle;Signal;HPM_P1;HPM_P2
2022/02/18 05:01:25;;;;;;;5.30;1.90;;;4.50;99.90;;;;;;5460375;23;20288;-66
2022/02/18 05:03:51;;;;;;;4.72;2.25;;;4.50;99.90;;;;;;4945630;28;20214;-67
2022/02/18 05:06:18;;;;;;;2.25;1.88;;;4.50;99.90;;;;;;4949699;29;20205;-67
2022/02/18 05:08:45;;;;;;;10.50;2.60;;;4.50;99.90;;;;;;4952557;28;20551;-68
2022/02/18 05:11:12;;;;;;;4.32;1.95;;;4.50;99.90;;;;;;4943249;28;20308;-67
2022/02/18 05:13:39;;;;;;;7.68;2.55;;;4.60;99.90;;;;;;4933454;29;20253;-67
2022/02/18 05:16:06;;;;;;;5.55;2.33;;;4.60;99.90;;;;;;4933122;29;20222;-67
2022/02/18 05:18:34;;;;;;;5.38;2.20;;;4.60;99.90;;;;;;4933407;29;20210;-67
2022/02/18 05:21:01;;;;;;;5.78;2.95;;;4.60;99.90;;;;;;4933166;29;20227;-66
2022/02/18 05:23:27;;;;;;;8.50;2.60;;;4.60;99.90;;;;;;4925048;29;20313;-67
2022/02/18 05:25:54;;;;;;;9.10;2.63;;;4.60;99.90;;;;;;4922544;29;20331;-67
2022/02/18 05:28:21;;;;;;;8.25;3.13;;;4.60;99.90;;;;;;4932535;29;20218;-68
2022/02/18 05:30:47;;;;;;;8.55;2.88;;;4.60;99.90;;;;;;4933582;29;20222;-68
2022/02/18 05:33:14;;;;;;;5.43;2.75;;;4.60;99.90;;;;;;4932837;29;20266;-68
2022/02/18 05:35:42;;;;;;;10.07;2.72;;;4.60;99.90;;;;;;4932367;29;20285;-67
2022/02/18 05:38:09;;;;;;;9.38;2.67;;;4.60;99.90;;;;;;4928127;29;20214;-68
2022/02/18 05:40:36;;;;;;;4.18;2.80;;;4.60;99.90;;;;;;4931760;29;20361;-69
2022/02/18 05:43:04;;;;;;;3.55;2.10;;;4.60;99.90;;;;;;4933005;29;20209;-68
2022/02/18 05:45:32;;;;;;;4.90;2.80;;;4.60;99.90;;;;;;4931939;29;20202;-68
2022/02/18 05:47:59;;;;;;;6.63;2.90;;;4.60;99.90;;;;;;4932430;29;20253;-67
2022/02/18 05:50:25;;;;;;;3.97;3.08;;;4.60;99.90;;;;;;4932820;29;20206;-68
2022/02/18 05:52:53;;;;;;;12.73;3.53;;;4.60;99.90;;;;;;4927731;29;20258;-68
2022/02/18 05:55:20;;;;;;;7.95;3.00;;;4.60;99.90;;;;;;4917428;29;20226;-68
2022/02/18 05:57:47;;;;;;;7.32;3.45;;;4.60;99.90;;;;;;4932776;29;20230;-68
2022/02/18 06:00:14;;;;;;;9.68;3.33;;;4.60;99.90;;;;;;4932597;29;20209;-68
2022/02/18 06:02:42;;;;;;;3.80;3.03;;;4.60;99.90;;;;;;4932600;29;20776;-66
2022/02/18 06:05:10;;;;;;;7.90;3.45;;;4.70;99.90;;;;;;4929792;29;20230;-68
2022/02/18 06:07:37;;;;;;;5.40;3.63;;;4.70;99.90;;;;;;4931939;29;20749;-68
2022/02/18 06:10:06;;;;;;;4.88;3.70;;;4.70;99.90;;;;;;4931614;29;20265;-66
2022/02/18 06:12:33;;;;;;;2.85;2.33;;;4.70;99.90;;;;;;4932693;29;20242;-67
2022/02/18 06:14:59;;;;;;;6.40;3.50;;;4.70;99.90;;;;;;4932366;29;20293;-66
2022/02/18 06:17:26;;;;;;;3.65;2.75;;;4.70;99.90;;;;;;4932797;29;20253;-67
2022/02/18 06:19:53;;;;;;;9.40;3.55;;;4.70;99.90;;;;;;4931752;29;20655;-67
2022/02/18 06:22:19;;;;;;;7.40;3.55;;;4.70;99.90;;;;;;4931616;29;20225;-67
2022/02/18 06:24:46;;;;;;;7.53;3.65;;;4.70;99.90;;;;;;4931916;29;20546;-66
2022/02/18 06:27:14;;;;;;;8.02;3.88;;;4.70;99.90;;;;;;4924406;29;20758;-69
2022/02/18 06:29:41;;;;;;;7.57;3.97;;;4.80;99.90;;;;;;4922887;29;20274;-69
2022/02/18 06:32:11;;;;;;;7.90;4.45;;;4.80;99.90;;;;;;4929716;29;20587;-69
2022/02/18 06:34:37;;;;;;;8.65;5.20;;;4.80;99.90;;;;;;4925552;29;20206;-69
2022/02/18 06:37:04;;;;;;;4.22;3.90;;;4.80;99.90;;;;;;4931043;29;20214;-68
2022/02/18 06:39:35;;;;;;;8.57;4.18;;;4.80;99.90;;;;;;4915086;29;20285;-65
2022/02/18 06:42:02;;;;;;;12.70;5.68;;;4.80;99.90;;;;;;4927228;29;20230;-69
2022/02/18 06:44:30;;;;;;;11.07;4.88;;;4.80;99.90;;;;;;4927683;29;20253;-68
2022/02/18 06:46:57;;;;;;;11.00;4.57;;;4.80;99.90;;;;;;4931345;29;20210;-68
2022/02/18 06:49:24;;;;;;;7.72;5.10;;;4.90;99.90;;;;;;4932148;29;20251;-67
2022/02/18 06:51:55;;;;;;;7.60;4.68;;;4.90;99.90;;;;;;4925487;29;20285;-66
2022/02/18 06:54:22;;;;;;;5.20;4.28;;;4.90;99.90;;;;;;4932817;29;20553;-68
2022/02/18 06:56:48;;;;;;;12.77;3.90;;;4.90;99.90;;;;;;4934558;29;20649;-68
2022/02/18 06:59:15;;;;;;;6.32;4.53;;;5.00;99.90;;;;;;4926904;29;20289;-67
2022/02/18 07:01:43;;;;;;;4.05;3.60;;;4.90;99.90;;;;;;4928960;29;20639;-66
2022/02/18 07:04:10;;;;;;;8.52;4.80;;;5.00;99.90;;;;;;4929379;29;20663;-67
2022/02/18 07:06:37;;;;;;;8.40;4.25;;;5.00;99.90;;;;;;4934454;29;20198;-66
2022/02/18 07:09:07;;;;;;;7.70;5.05;;;5.10;99.90;;;;;;4935839;29;20210;-68
2022/02/18 07:11:34;;;;;;;9.18;4.05;;;5.10;99.90;;;;;;4931252;29;20218;-69
2022/02/18 07:14:01;;;;;;;5.97;3.65;;;5.10;99.90;;;;;;4935645;29;20305;-69
2022/02/18 07:16:28;;;;;;;10.65;4.68;;;5.10;99.90;;;;;;4930843;29;20713;-67
2022/02/18 07:18:56;;;;;;;9.00;4.25;;;5.10;99.90;;;;;;4930469;29;20233;-66
2022/02/18 07:21:23;;;;;;;4.43;4.03;;;5.10;99.90;;;;;;4934544;29;20237;-67
2022/02/18 07:23:49;;;;;;;7.35;3.92;;;5.20;99.90;;;;;;4934513;29;20202;-68
2022/02/18 07:26:16;;;;;;;12.23;5.22;;;5.20;99.90;;;;;;4933058;29;20457;-68
2022/02/18 07:28:43;;;;;;;4.70;4.10;;;5.30;99.90;;;;;;4923785;29;20771;-67
2022/02/18 07:31:10;;;;;;;9.23;4.57;;;5.30;99.90;;;;;;4918722;29;21907;-67
2022/02/18 07:33:37;;;;;;;7.05;3.80;;;5.30;99.90;;;;;;4918661;29;20214;-69
2022/02/18 07:36:06;;;;;;;7.32;4.03;;;5.30;99.90;;;;;;4916826;29;20233;-68
2022/02/18 07:38:32;;;;;;;10.45;4.13;;;5.40;99.90;;;;;;4927631;29;20671;-68
2022/02/18 07:40:59;;;;;;;6.80;3.88;;;5.40;99.90;;;;;;4934163;29;20257;-68
2022/02/18 07:43:26;;;;;;;7.95;3.72;;;5.40;99.90;;;;;;4934924;29;20210;-67
2022/02/18 07:45:54;;;;;;;9.05;3.50;;;5.40;99.90;;;;;;4934753;29;20265;-68
2022/02/18 07:48:20;;;;;;;8.63;4.20;;;5.50;99.90;;;;;;4935459;29;20277;-68
2022/02/18 07:50:47;;;;;;;8.57;3.95;;;5.50;99.90;;;;;;4929196;29;20223;-69
2022/02/18 07:53:15;;;;;;;6.40;3.70;;;5.50;99.90;;;;;;4916080;29;20246;-68
2022/02/18 07:55:41;;;;;;;5.60;3.20;;;5.60;99.90;;;;;;4933274;29;20218;-68
2022/02/18 07:58:08;;;;;;;10.90;3.45;;;5.60;99.90;;;;;;4935176;29;20217;-67
2022/02/18 08:00:36;;;;;;;9.25;4.00;;;5.70;99.90;;;;;;4934140;29;20238;-68
2022/02/18 08:03:03;;;;;;;5.55;4.53;;;5.70;99.90;;;;;;4935112;29;20679;-69
2022/02/18 08:05:30;;;;;;;6.85;3.25;;;5.70;99.90;;;;;;4929610;29;20206;-68
2022/02/18 08:07:58;;;;;;;5.93;3.13;;;5.80;99.90;;;;;;4921483;29;20344;-68
2022/02/18 08:10:27;;;;;;;6.53;3.00;;;5.80;99.90;;;;;;4914826;29;20302;-68
2022/02/18 08:12:53;;;;;;;5.55;3.50;;;5.80;99.90;;;;;;4916284;29;20222;-67
2022/02/18 08:15:20;;;;;;;4.13;3.80;;;5.80;99.90;;;;;;4921585;29;20236;-68
2022/02/18 08:17:47;;;;;;;6.25;2.83;;;5.90;99.90;;;;;;4935043;29;20241;-66
2022/02/18 08:20:14;;;;;;;4.85;3.38;;;5.90;99.90;;;;;;4934486;29;20210;-67
2022/02/18 08:22:41;;;;;;;6.85;3.80;;;5.90;99.90;;;;;;4923727;29;20583;-67
2022/02/18 08:25:10;;;;;;;5.90;3.90;;;6.00;99.90;;;;;;4934075;29;20201;-67
2022/02/18 08:27:38;;;;;;;10.35;4.20;;;6.00;99.90;;;;;;4934914;29;20591;-68
2022/02/18 08:30:06;;;;;;;9.13;3.42;;;6.10;99.90;;;;;;4927567;29;20270;-67
2022/02/18 08:32:33;;;;;;;6.95;3.15;;;6.10;99.90;;;;;;4925525;29;20756;-67
2022/02/18 08:35:00;;;;;;;6.10;2.83;;;6.10;99.90;;;;;;4921532;29;20218;-67
2022/02/18 08:37:27;;;;;;;8.80;3.60;;;6.20;99.90;;;;;;4925767;29;20294;-68
2022/02/18 08:39:53;;;;;;;7.07;3.55;;;6.20;99.90;;;;;;4921569;29;20211;-67
2022/02/18 08:42:20;;;;;;;11.60;4.28;;;6.20;99.90;;;;;;4932965;29;20238;-68
2022/02/18 08:44:48;;;;;;;5.82;3.38;;;6.20;99.90;;;;;;4924186;29;20217;-68
2022/02/18 08:47:15;;;;;;;8.65;4.05;;;6.30;99.90;;;;;;4929723;29;20697;-68
2022/02/18 08:49:42;;;;;;;4.22;3.35;;;6.30;99.90;;;;;;4932880;29;20289;-67
2022/02/18 08:52:09;;;;;;;4.35;2.83;;;6.40;99.90;;;;;;4929140;29;20273;-67
2022/02/18 08:54:36;;;;;;;6.97;3.97;;;6.40;99.90;;;;;;4929633;29;20207;-67
2022/02/18 08:57:03;;;;;;;6.68;3.88;;;6.40;99.90;;;;;;4925484;29;20265;-69
2022/02/18 08:59:29;;;;;;;13.80;4.70;;;6.50;99.90;;;;;;4919828;29;20202;-67
2022/02/18 09:01:58;;;;;;;11.02;6.03;;;6.50;99.90;;;;;;4924724;29;20244;-67
2022/02/18 09:04:25;;;;;;;7.75;5.50;;;6.60;99.90;;;;;;4932260;29;20253;-69
2022/02/18 09:06:52;;;;;;;13.63;6.05;;;6.60;99.90;;;;;;4933190;29;20202;-67
2022/02/18 09:09:18;;;;;;;5.78;4.75;;;6.60;99.90;;;;;;4930034;29;20206;-68
2022/02/18 09:11:45;;;;;;;15.40;5.70;;;6.60;99.90;;;;;;4928087;29;20274;-68
2022/02/18 09:14:15;;;;;;;13.38;6.22;;;6.60;99.90;;;;;;4930379;29;20246;-67
2022/02/18 09:16:42;;;;;;;8.38;5.45;;;6.60;99.90;;;;;;4929553;29;20222;-67
2022/02/18 09:19:11;;;;;;;9.98;5.45;;;6.60;99.90;;;;;;4929653;29;20217;-67
2022/02/18 09:21:37;;;;;;;9.52;5.57;;;6.60;99.90;;;;;;4932433;29;20308;-68
2022/02/18 09:24:05;;;;;;;7.22;5.88;;;6.60;99.90;;;;;;4933422;29;20202;-67
2022/02/18 09:26:31;;;;;;;8.38;4.03;;;6.60;99.90;;;;;;4929158;29;20269;-68
2022/02/18 09:28:58;;;;;;;7.72;6.30;;;6.60;99.90;;;;;;4928566;29;20688;-66
2022/02/18 09:31:25;;;;;;;10.43;4.07;;;6.60;99.90;;;;;;4931108;29;20642;-68
2022/02/18 09:33:53;;;;;;;7.38;4.68;;;6.60;99.90;;;;;;4933361;29;20677;-68
2022/02/18 09:36:21;;;;;;;5.50;4.82;;;6.60;99.90;;;;;;4932651;29;20284;-68
2022/02/18 09:38:48;;;;;;;7.75;4.28;;;6.60;99.90;;;;;;4921836;29;20215;-68
2022/02/18 09:41:14;;;;;;;6.50;5.78;;;6.60;99.90;;;;;;4929213;29;20230;-68
2022/02/18 09:43:42;;;;;;;6.57;5.40;;;6.70;99.90;;;;;;4933043;29;20201;-67
2022/02/18 09:46:09;;;;;;;10.43;5.35;;;6.70;99.90;;;;;;4927364;29;20247;-67
2022/02/18 09:48:36;;;;;;;9.77;4.43;;;6.60;99.90;;;;;;4921742;29;20206;-67
2022/02/18 09:51:03;;;;;;;7.97;4.47;;;6.60;99.90;;;;;;4932649;29;20325;-68
2022/02/18 09:53:34;;;;;;;9.10;4.97;;;6.60;99.90;;;;;;4928329;29;20249;-67
2022/02/18 09:56:02;;;;;;;6.60;3.63;;;6.60;99.90;;;;;;4927993;29;20640;-68
2022/02/18 09:58:29;;;;;;;4.47;4.03;;;6.60;99.90;;;;;;4919382;29;20294;-66
2022/02/18 10:00:56;;;;;;;11.20;5.15;;;6.60;99.90;;;;;;4923124;29;20300;-68
2022/02/18 10:03:22;;;;;;;11.05;5.00;;;6.60;99.90;;;;;;4931710;29;20222;-68
2022/02/18 10:05:49;;;;;;;8.38;4.68;;;6.50;99.90;;;;;;4932527;29;20265;-67
2022/02/18 10:08:18;;;;;;;11.10;5.10;;;6.60;99.90;;;;;;4932106;29;20219;-67
2022/02/18 10:10:58;;;;;;;15.50;4.70;;;6.60;99.90;;;;;;4931795;29;20241;-68
2022/02/18 10:13:34;;;;;;;8.20;4.88;;;6.60;99.90;;;;;;4928625;29;20202;-66
2022/02/18 10:16:02;;;;;;;12.88;5.53;;;6.60;99.90;;;;;;4926990;29;20867;-67
2022/02/18 10:18:44;;;;;;;6.93;5.75;;;6.60;99.90;;;;;;4930124;29;20269;-66
2022/02/18 10:21:14;;;;;;;11.80;6.13;;;6.60;99.90;;;;;;4936329;29;20264;-67
2022/02/18 10:23:41;;;;;;;9.02;5.40;;;6.60;99.90;;;;;;4936599;29;20213;-68
2022/02/18 10:26:09;;;;;;;7.50;5.50;;;6.60;99.90;;;;;;4935835;29;20198;-67
2022/02/18 10:28:36;;;;;;;6.10;5.50;;;6.60;99.90;;;;;;4934500;29;20206;-66
2022/02/18 10:31:04;;;;;;;10.85;5.25;;;6.60;99.90;;;;;;4925519;29;20229;-67
2022/02/18 10:33:35;;;;;;;10.68;5.18;;;6.60;99.90;;;;;;4936244;29;20210;-68
2022/02/18 10:36:03;;;;;;;11.43;6.53;;;6.60;99.90;;;;;;4936227;29;20711;-68
2022/02/18 10:38:32;;;;;;;11.30;6.25;;;6.60;99.90;;;;;;4936285;29;20625;-67
2022/02/18 10:40:59;;;;;;;15.05;7.07;;;6.70;99.90;;;;;;4916324;29;20240;-68
2022/02/18 10:43:28;;;;;;;8.05;5.53;;;6.70;99.90;;;;;;4922410;29;20202;-65
2022/02/18 10:45:59;;;;;;;7.70;6.90;;;6.70;99.90;;;;;;4936033;29;20264;-68
2022/02/18 10:48:27;;;;;;;8.57;6.22;;;6.80;99.90;;;;;;4935580;29;20340;-68
2022/02/18 10:51:08;;;;;;;11.25;7.40;;;6.80;99.90;;;;;;4927701;29;20233;-68
2022/02/18 10:53:37;;;;;;;9.65;5.88;;;6.90;99.90;;;;;;4935920;29;20284;-68
2022/02/18 10:56:06;;;;;;;12.60;6.65;;;6.90;99.90;;;;;;4931048;29;20261;-68
2022/02/18 10:58:35;;;;;;;10.88;5.03;;;7.00;99.90;;;;;;4932673;29;20218;-67
2022/02/18 11:01:07;;;;;;;10.57;6.40;;;7.00;99.90;;;;;;4935423;29;20237;-68
2022/02/18 11:03:36;;;;;;;13.55;6.40;;;7.10;99.90;;;;;;4932980;29;20241;-68
2022/02/18 11:06:14;;;;;;;7.15;5.93;;;7.10;99.90;;;;;;4935720;29;20284;-66
2022/02/18 11:08:51;;;;;;;8.25;5.10;;;7.20;99.90;;;;;;4934691;29;20210;-68
2022/02/18 11:11:18;;;;;;;11.18;6.53;;;7.20;99.90;;;;;;4934001;29;20709;-68
2022/02/18 11:13:47;;;;;;;11.43;5.90;;;7.30;99.90;;;;;;4935616;29;20206;-66
2022/02/18 11:16:17;;;;;;;6.88;6.18;;;7.40;99.90;;;;;;4935724;29;20233;-67
2022/02/18 11:18:45;;;;;;;8.18;5.03;;;7.40;99.90;;;;;;4935430;29;20202;-67
2022/02/18 11:21:13;;;;;;;8.95;5.13;;;7.40;99.90;;;;;;4935435;29;20225;-67
2022/02/18 11:23:42;;;;;;;9.27;5.60;;;7.40;99.90;;;;;;4935744;29;20286;-67
2022/02/18 11:26:10;;;;;;;5.88;4.10;;;7.40;99.90;;;;;;4932259;29;20205;-65
2022/02/18 11:28:37;;;;;;;5.25;4.85;;;7.40;99.90;;;;;;4921802;29;20201;-66
2022/02/18 11:31:10;;;;;;;10.70;4.68;;;7.40;99.90;;;;;;4934279;29;20372;-68
2022/02/18 11:34:10;;;;;;;5.82;5.30;;;7.40;99.90;;;;;;4921072;29;20209;-68
2022/02/18 11:37:08;;;;;;;6.45;3.53;;;7.40;99.90;;;;;;4935228;29;20226;-68
2022/02/18 11:39:56;;;;;;;7.00;4.25;;;7.40;99.90;;;;;;4934966;29;20212;-66
2022/02/18 11:42:31;;;;;;;5.75;3.85;;;7.30;99.90;;;;;;4934347;29;20308;-67
2022/02/18 11:44:58;;;;;;;4.00;2.72;;;7.30;99.90;;;;;;4928746;29;20206;-67
2022/02/18 11:47:26;;;;;;;4.18;3.60;;;7.20;99.90;;;;;;4935271;29;20627;-68
2022/02/18 11:50:06;;;;;;;3.90;2.85;;;7.10;99.90;;;;;;4934467;29;20253;-66
2022/02/18 11:52:43;;;;;;;5.45;3.70;;;7.10;99.90;;;;;;4935173;29;20233;-68
2022/02/18 11:55:29;;;;;;;8.43;3.38;;;7.00;99.90;;;;;;4930301;29;20209;-68
2022/02/18 11:57:57;;;;;;;5.45;3.10;;;7.00;99.90;;;;;;4926486;29;20697;-64
2022/02/18 12:00:37;;;;;;;4.07;3.20;;;6.90;99.90;;;;;;4938388;29;20265;-67
2022/02/18 12:03:15;;;;;;;6.28;4.68;;;6.90;99.90;;;;;;4941423;29;20302;-67
2022/02/18 12:06:08;;;;;;;5.32;3.30;;;6.90;99.90;;;;;;4934365;29;20296;-66
2022/02/18 12:08:36;;;;;;;2.83;2.58;;;6.80;99.90;;;;;;4942047;29;20670;-68
2022/02/18 12:11:12;;;;;;;4.70;2.90;;;6.80;99.90;;;;;;4928734;29;20237;-67
2022/02/18 12:13:52;;;;;;;3.55;3.25;;;6.80;99.90;;;;;;4938746;29;20204;-67
2022/02/18 12:16:19;;;;;;;4.93;2.60;;;6.80;99.90;;;;;;4934493;29;20269;-67
2022/02/18 12:19:03;;;;;;;6.75;2.90;;;6.80;99.90;;;;;;4942035;29;20205;-68
2022/02/18 12:21:30;;;;;;;5.55;3.08;;;6.80;99.90;;;;;;4933653;29;20285;-67
2022/02/18 12:23:57;;;;;;;4.07;3.17;;;6.80;99.90;;;;;;4934190;29;20562;-67
2022/02/18 12:26:25;;;;;;;3.08;2.75;;;6.80;99.90;;;;;;4933091;29;20265;-67
2022/02/18 12:29:13;;;;;;;4.22;3.67;;;6.90;99.90;;;;;;4933324;29;20704;-67
2022/02/18 12:31:50;;;;;;;4.13;2.35;;;6.90;99.90;;;;;;4926969;29;20221;-67
2022/02/18 12:34:27;;;;;;;3.38;2.55;;;6.90;99.90;;;;;;4942171;29;20522;-67
2022/02/18 12:36:54;;;;;;;4.70;2.80;;;6.90;99.90;;;;;;4922139;29;20297;-67
2022/02/18 12:39:35;;;;;;;5.75;3.10;;;6.90;99.90;;;;;;4938709;29;20210;-66
2022/02/18 12:42:07;;;;;;;4.40;3.05;;;6.90;99.90;;;;;;4942830;28;20235;-67
2022/02/18 12:44:34;;;;;;;3.30;2.78;;;6.90;99.90;;;;;;4938313;29;20213;-68
2022/02/18 12:47:01;;;;;;;4.03;2.92;;;6.90;99.90;;;;;;4945904;29;20201;-67
2022/02/18 12:49:41;;;;;;;3.65;3.15;;;6.90;99.90;;;;;;4934837;29;20241;-67
2022/02/18 12:52:09;;;;;;;4.45;2.95;;;6.90;99.90;;;;;;4933756;29;20584;-66
2022/02/18 12:54:46;;;;;;;8.13;2.88;;;7.00;99.90;;;;;;4935411;29;20304;-66
2022/02/18 12:57:18;;;;;;;6.18;3.28;;;7.00;99.90;;;;;;4944125;29;20229;-68
2022/02/18 12:59:45;;;;;;;4.82;3.03;;;7.00;99.90;;;;;;4926039;29;20210;-67
2022/02/18 13:02:12;;;;;;;3.40;2.75;;;7.00;99.90;;;;;;4932615;29;20245;-67
2022/02/18 13:04:40;;;;;;;3.88;3.53;;;7.00;99.90;;;;;;4933907;29;20218;-66
2022/02/18 13:07:10;;;;;;;3.92;1.65;;;7.10;99.90;;;;;;4932793;29;20293;-67
2022/02/18 13:09:38;;;;;;;4.30;2.20;;;7.20;99.90;;;;;;4933017;29;20705;-67
2022/02/18 13:12:05;;;;;;;5.75;2.58;;;7.30;99.90;;;;;;4932407;29;20288;-66
2022/02/18 13:14:32;;;;;;;3.10;2.20;;;7.40;99.90;;;;;;4950347;29;20246;-66
2022/02/18 13:16:59;;;;;;;4.50;2.20;;;7.40;99.90;;;;;;4946302;28;20627;-66
2022/02/18 13:19:26;;;;;;;12.18;3.47;;;7.40;99.90;;;;;;4932528;29;20212;-65
2022/02/18 13:21:54;;;;;;;6.32;2.30;;;7.50;99.90;;;;;;4924736;29;20225;-66
2022/02/18 13:24:27;;;;;;;6.68;2.20;;;7.50;99.90;;;;;;4933323;29;20537;-66
2022/02/18 13:26:54;;;;;;;7.97;2.80;;;7.60;99.90;;;;;;4926846;29;20213;-68
2022/02/18 13:29:20;;;;;;;8.18;2.17;;;7.70;99.90;;;;;;4926340;29;20222;-66
2022/02/18 13:31:47;;;;;;;2.33;1.80;;;7.70;99.90;;;;;;4931017;29;20230;-66
2022/02/18 13:34:14;;;;;;;7.60;2.65;;;7.80;99.90;;;;;;4931937;29;20210;-66
2022/02/18 13:36:41;;;;;;;3.92;2.55;;;7.90;99.90;;;;;;4934472;29;20627;-69
2022/02/18 13:39:14;;;;;;;6.40;2.40;;;7.90;99.90;;;;;;4937807;29;20254;-67
2022/02/18 13:41:42;;;;;;;5.65;2.55;;;7.90;99.90;;;;;;4930059;29;20230;-67
2022/02/18 13:44:13;;;;;;;4.82;1.88;;;8.00;99.90;;;;;;4933086;29;20598;-68
2022/02/18 13:46:42;;;;;;;2.42;2.33;;;8.00;99.90;;;;;;4944342;29;20669;-66
2022/02/18 13:49:11;;;;;;;2.10;1.80;;;8.10;99.90;;;;;;4942000;28;20213;-66
2022/02/18 13:51:39;;;;;;;4.00;2.15;;;8.10;99.90;;;;;;4937159;28;20233;-66
2022/02/18 13:54:08;;;;;;;8.38;1.95;;;8.20;99.90;;;;;;4945979;29;20209;-66
2022/02/18 13:56:37;;;;;;;5.78;2.80;;;8.30;99.90;;;;;;4936930;29;20210;-69
2022/02/18 13:59:17;;;;;;;4.25;2.25;;;8.30;99.90;;;;;;4933018;29;20245;-67
2022/02/18 14:01:44;;;;;;;3.50;2.60;;;8.30;99.90;;;;;;4922349;29;20230;-66
2022/02/18 14:04:17;;;;;;;3.40;2.38;;;8.40;99.90;;;;;;4932854;29;20210;-66
2022/02/18 14:06:44;;;;;;;2.53;2.05;;;8.40;99.90;;;;;;4925882;29;20204;-68
2022/02/18 14:09:12;;;;;;;4.38;2.22;;;8.50;99.90;;;;;;4932436;29;20197;-65
2022/02/18 14:11:47;;;;;;;2.53;2.42;;;8.60;99.90;;;;;;4949552;28;20221;-65
2022/02/18 14:14:16;;;;;;;4.38;2.10;;;8.70;99.90;;;;;;4944782;29;20212;-66
2022/02/18 14:16:54;;;;;;;4.70;2.63;;;8.70;99.90;;;;;;4921755;29;20269;-66
2022/02/18 14:19:21;;;;;;;3.05;1.73;;;8.80;99.90;;;;;;4920297;29;20296;-65
2022/02/18 14:21:59;;;;;;;4.38;2.00;;;8.80;99.90;;;;;;4943412;28;20229;-66
2022/02/18 14:24:34;;;;;;;4.55;2.28;;;8.80;99.90;;;;;;4951717;29;20209;-68
2022/02/18 14:27:00;;;;;;;2.17;2.08;;;8.80;99.90;;;;;;4913550;29;20560;-66
2022/02/18 14:29:27;;;;;;;3.30;2.28;;;8.80;99.90;;;;;;4913881;29;20214;-65
2022/02/18 14:31:56;;;;;;;2.55;2.35;;;8.80;99.90;;;;;;4931649;29;20237;-67
2022/02/18 14:34:24;;;;;;;1.88;1.77;;;8.90;99.90;;;;;;4931643;29;20206;-66
2022/02/18 14:37:00;;;;;;;6.03;2.38;;;8.90;99.90;;;;;;4914122;29;20270;-66
2022/02/18 14:39:28;;;;;;;4.25;2.92;;;8.90;99.90;;;;;;4913730;29;20628;-67
2022/02/18 14:42:01;;;;;;;2.20;2.10;;;9.00;99.90;;;;;;4931575;29;20289;-67
2022/02/18 14:44:55;;;;;;;3.42;2.17;;;9.00;99.90;;;;;;4932786;29;20198;-67
2022/02/18 14:47:23;;;;;;;1.80;1.80;;;9.00;99.90;;;;;;4932919;29;20293;-66
2022/02/18 14:49:51;;;;;;;3.60;2.60;;;9.10;99.90;;;;;;4931278;29;20209;-67
2022/02/18 14:52:19;;;;;;;1.70;1.60;;;9.10;99.90;;;;;;4931147;29;20308;-66
2022/02/18 14:54:46;;;;;;;5.05;2.25;;;9.20;99.90;;;;;;4934199;29;20236;-66
2022/02/18 14:57:15;;;;;;;7.05;1.90;;;9.20;99.90;;;;;;4935071;29;20210;-67
2022/02/18 14:59:42;;;;;;;7.13;2.13;;;9.20;99.90;;;;;;4935993;29;20312;-66
2022/02/18 15:02:09;;;;;;;1.80;1.70;;;9.20;99.90;;;;;;4939578;28;20746;-68
2022/02/18 15:04:36;;;;;;;1.70;1.70;;;9.30;99.90;;;;;;4926756;29;20702;-66
2022/02/18 15:07:03;;;;;;;1.33;1.33;;;9.30;99.90;;;;;;4943107;29;20643;-68
2022/02/18 15:09:30;;;;;;;1.58;1.58;;;9.40;99.90;;;;;;4939540;28;20209;-66
2022/02/18 15:11:57;;;;;;;2.13;2.03;;;9.40;99.90;;;;;;4934464;29;20237;-66
2022/02/18 15:14:25;;;;;;;2.65;2.50;;;9.40;99.90;;;;;;4936087;29;20237;-66
2022/02/18 15:16:52;;;;;;;4.50;1.63;;;9.50;99.90;;;;;;4934388;29;20788;-67
2022/02/18 15:19:19;;;;;;;1.70;1.60;;;9.50;99.90;;;;;;4934888;29;20836;-67
2022/02/18 15:21:46;;;;;;;1.77;1.58;;;9.60;99.90;;;;;;4934620;29;20656;-66
2022/02/18 15:24:13;;;;;;;1.63;1.52;;;9.60;99.90;;;;;;4931959;29;20214;-67
2022/02/18 15:26:39;;;;;;;1.80;1.70;;;9.70;99.90;;;;;;4933328;29;20207;-68
2022/02/18 15:29:06;;;;;;;2.17;1.98;;;9.70;99.90;;;;;;4939005;29;20206;-66
2022/02/18 15:34:36;;;;;;;1.25;1.20;;;9.80;99.90;;;;;;4933588;29;20208;-66
2022/02/18 15:37:04;;;;;;;2.42;1.98;;;9.90;99.90;;;;;;4925166;29;20198;-66
2022/02/18 15:42:17;;;;;;;1.50;1.40;;;10.00;99.90;;;;;;4915609;29;20335;-67
2022/02/18 15:44:46;;;;;;;2.15;1.95;;;10.00;99.90;;;;;;4922354;29;20266;-70
2022/02/18 15:47:16;;;;;;;4.60;3.38;;;10.00;99.90;;;;;;4927658;29;20210;-67
2022/02/18 15:49:43;;;;;;;1.45;1.23;;;10.00;99.90;;;;;;4931025;29;20249;-68
2022/02/18 15:52:12;;;;;;;1.52;1.40;;;9.90;99.90;;;;;;4933257;29;20249;-66
2022/02/18 15:54:39;;;;;;;1.35;1.35;;;9.90;99.90;;;;;;4935120;29;20276;-66
2022/02/18 15:57:08;;;;;;;1.33;1.33;;;9.90;99.90;;;;;;4934829;29;20268;-67
2022/02/18 15:59:36;;;;;;;1.27;1.15;;;9.90;99.90;;;;;;4937489;29;20324;-66
2022/02/18 16:02:04;;;;;;;1.77;1.60;;;9.90;99.90;;;;;;4938128;28;20238;-67
2022/02/18 16:04:33;;;;;;;2.85;1.75;;;9.90;99.90;;;;;;4934830;29;20654;-65
2022/02/18 16:07:02;;;;;;;1.40;1.33;;;9.90;99.90;;;;;;4934963;29;20214;-66
2022/02/18 16:09:29;;;;;;;1.75;1.52;;;9.90;99.90;;;;;;4934057;29;20210;-65
2022/02/18 16:11:56;;;;;;;1.60;1.55;;;9.90;99.90;;;;;;4932403;29;20615;-66
2022/02/18 16:14:23;;;;;;;1.58;1.58;;;9.90;99.90;;;;;;4935260;29;20686;-67
2022/02/18 16:16:53;;;;;;;1.80;1.80;;;9.90;99.90;;;;;;4931898;29;20238;-66
2022/02/18 16:19:22;;;;;;;1.58;1.48;;;9.80;99.90;;;;;;4934104;29;20241;-66
2022/02/18 16:21:51;;;;;;;2.42;1.45;;;9.80;99.90;;;;;;4925255;29;20297;-67
2022/02/18 16:24:19;;;;;;;3.10;2.05;;;9.80;99.90;;;;;;4934613;29;20206;-66
2022/02/18 16:26:47;;;;;;;1.85;1.85;;;9.80;99.90;;;;;;4929804;29;20230;-66
2022/02/18 16:29:14;;;;;;;1.88;1.88;;;9.80;99.90;;;;;;4929592;29;20310;-67
2022/02/18 16:31:41;;;;;;;2.13;2.05;;;9.80;99.90;;;;;;4933420;29;20233;-66
2022/02/18 16:34:08;;;;;;;1.45;1.45;;;9.80;99.90;;;;;;4934126;29;20281;-65
2022/02/18 16:36:35;;;;;;;1.40;1.30;;;9.90;99.90;;;;;;4933906;29;20354;-68
2022/02/18 16:39:04;;;;;;;0.90;0.90;;;9.90;99.90;;;;;;4934102;29;20293;-65
2022/02/18 16:41:30;;;;;;;1.00;0.90;;;9.90;99.90;;;;;;4932574;29;20583;-68
2022/02/18 16:43:57;;;;;;;0.85;0.85;;;9.80;99.90;;;;;;4932777;29;20209;-66
2022/02/18 16:46:24;;;;;;;1.08;1.08;;;9.80;99.90;;;;;;4931915;29;20214;-66
2022/02/18 16:48:50;;;;;;;2.85;0.98;;;9.80;99.90;;;;;;4927107;29;20206;-65
2022/02/18 16:51:18;;;;;;;1.17;0.88;;;9.80;99.90;;;;;;4933217;29;20257;-68
2022/02/18 16:53:46;;;;;;;1.67;0.73;;;9.80;99.90;;;;;;4933978;29;20794;-67
2022/02/18 16:56:14;;;;;;;0.90;0.90;;;9.80;99.90;;;;;;4919194;29;20584;-66
2022/02/18 16:58:43;;;;;;;0.90;0.90;;;9.70;99.90;;;;;;4933539;29;20295;-66
2022/02/18 17:01:10;;;;;;;0.85;0.85;;;9.70;99.90;;;;;;4938480;28;20239;-66
2022/02/18 17:03:36;;;;;;;2.30;1.20;;;9.50;99.90;;;;;;4935017;29;20293;-66
2022/02/18 17:06:03;;;;;;;1.20;1.20;;;9.40;99.90;;;;;;4934576;29;20272;-66
2022/02/18 17:08:30;;;;;;;0.73;0.60;;;9.30;99.90;;;;;;4932855;29;20683;-66
2022/02/18 17:10:57;;;;;;;1.30;0.77;;;9.30;99.90;;;;;;4931885;29;20226;-66
2022/02/18 17:13:26;;;;;;;2.33;1.10;;;9.30;99.90;;;;;;4932600;29;20202;-67
2022/02/18 17:15:52;;;;;;;0.82;0.82;;;9.30;99.90;;;;;;4932822;29;20206;-67
2022/02/18 17:18:19;;;;;;;1.13;0.98;;;9.30;99.90;;;;;;4929847;29;20287;-66
2022/02/18 17:20:47;;;;;;;1.17;1.08;;;9.30;99.90;;;;;;4919561;29;20230;-68
2022/02/18 17:23:13;;;;;;;1.30;1.30;;;9.30;99.90;;;;;;4933053;29;20549;-66
2022/02/18 17:25:40;;;;;;;1.20;1.20;;;9.30;99.90;;;;;;4925908;29;20210;-68
2022/02/18 17:28:07;;;;;;;0.85;0.85;;;9.30;99.90;;;;;;4916587;29;20206;-67
2022/02/18 17:30:35;;;;;;;0.85;0.85;;;9.30;99.90;;;;;;4920556;29;20217;-67
2022/02/18 17:33:03;;;;;;;3.10;1.80;;;9.20;99.90;;;;;;4924404;29;20277;-67
2022/02/18 17:35:30;;;;;;;2.40;1.40;;;9.20;99.90;;;;;;4927177;29;20206;-67
2022/02/18 17:37:59;;;;;;;2.60;1.50;;;9.10;99.90;;;;;;4926790;29;20206;-67
2022/02/18 17:40:28;;;;;;;4.70;2.78;;;9.00;99.90;;;;;;4909853;29;20223;-67
2022/02/18 17:42:55;;;;;;;7.50;2.15;;;9.00;99.90;;;;;;4924671;29;20313;-67
2022/02/18 17:45:22;;;;;;;5.68;3.38;;;8.90;99.90;;;;;;4928668;29;20217;-67
2022/02/18 17:47:50;;;;;;;7.75;4.15;;;8.90;99.90;;;;;;4930502;29;20246;-66
2022/02/18 17:50:17;;;;;;;17.08;7.43;;;8.90;99.90;;;;;;4929207;29;20217;-67
2022/02/18 17:52:44;;;;;;;5.28;2.97;;;8.80;99.90;;;;;;4930323;29;20550;-66
2022/02/18 17:55:11;;;;;;;7.22;3.72;;;8.80;99.90;;;;;;4927627;29;20280;-65
2022/02/18 17:57:38;;;;;;;8.95;4.15;;;8.90;99.90;;;;;;4924422;29;20210;-66
2022/02/18 18:00:06;;;;;;;20.05;7.82;;;8.90;99.90;;;;;;4929351;29;20614;-66
2022/02/18 18:02:33;;;;;;;4.10;1.48;;;8.90;99.90;;;;;;4929755;29;20297;-66
2022/02/18 18:05:01;;;;;;;1.30;1.20;;;9.10;99.90;;;;;;4929862;29;20233;-67
2022/02/18 18:07:28;;;;;;;1.60;1.50;;;9.10;99.90;;;;;;4930349;29;20263;-66
2022/02/18 18:09:56;;;;;;;1.27;1.17;;;9.00;99.90;;;;;;4927855;29;20210;-65